Time;durP1;ratioP1;P1;durP2;ratioP2;P2;SDS_P1;SDS_P2;PMS_P1;PMS_P2;Temp;Humidity;BMP_temperature;BMP_pressure;BME280_temperature;BME280_humidity;BME280_pressure;Samples;Min_cycle;Max_cycle;Signal;HPM_P1;HPM_P2
2022/11/04 00:01:33;;;;;;;2.87;1.90;;;;;;;10.42;100.00;154035.47;5072979;28;20466;-92
2022/11/04 00:04:20;;;;;;;2.10;1.27;;;;;;;10.38;100.00;154025.09;5074896;28;20465;-92
2022/11/04 00:08:22;;;;;;;1.60;1.17;;;;;;;10.40;100.00;154030.31;5067621;28;20578;-92
2022/11/04 00:10:12;;;;;;;1.87;1.40;;;;;;;10.45;100.00;154043.25;5073865;28;20591;-92
2022/11/04 00:12:56;;;;;;;2.00;1.27;;;;;;;10.35;100.00;154017.38;5060866;28;20432;-91
2022/11/04 00:18:45;;;;;;;2.03;1.13;;;;;;;10.34;100.00;154014.75;5070623;28;20457;-92
2022/11/04 00:30:40;;;;;;;2.30;1.30;;;;;;;10.31;100.00;154008.28;5055720;28;20427;-92
2022/11/04 00:33:24;;;;;;;2.10;1.50;;;;;;;10.29;100.00;154003.13;5055795;28;20517;-92
2022/11/04 00:36:10;;;;;;;1.70;1.20;;;;;;;10.26;100.00;153994.03;5074296;28;20835;-92
2022/11/04 00:38:55;;;;;;;1.90;1.10;;;;;;;10.27;100.00;153996.66;5074892;28;20780;-90
2022/11/04 00:41:40;;;;;;;1.23;0.73;;;;;;;10.26;100.00;153994.03;5056842;28;20394;-90
2022/11/04 00:44:30;;;;;;;1.67;1.00;;;;;;;10.23;100.00;153987.56;5078431;28;20496;-81
2022/11/04 00:47:16;;;;;;;1.53;1.10;;;;;;;10.19;100.00;153977.19;5073322;28;20508;-91
2022/11/04 00:50:01;;;;;;;1.43;1.03;;;;;;;10.22;100.00;153983.66;5059407;28;20932;-90
2022/11/04 00:52:46;;;;;;;1.60;1.03;;;;;;;10.22;100.00;153984.97;5076697;28;20580;-90
2022/11/04 00:55:32;;;;;;;1.40;1.20;;;;;;;10.26;100.00;153994.03;5085992;28;20468;-89
2022/11/04 00:58:17;;;;;;;1.50;1.00;;;;;;;10.21;100.00;153982.41;5092213;28;20462;-90
2022/11/04 01:01:09;;;;;;;2.20;0.83;;;;;;;10.20;100.00;153978.50;5046494;28;20938;-90
2022/11/04 01:03:54;;;;;;;1.50;1.10;;;;;;;10.20;100.00;153978.50;5073979;28;20616;-91
2022/11/04 01:06:39;;;;;;;2.53;1.20;;;;;;;10.19;100.00;153975.94;5059400;28;20410;-91
2022/11/04 01:09:25;;;;;;;2.00;1.20;;;;;;;10.17;100.00;153970.72;5070370;28;20489;-90
2022/11/04 01:12:10;;;;;;;1.60;1.00;;;;;;;10.14;100.00;153963.00;5073352;28;20580;-90
2022/11/04 01:14:55;;;;;;;1.50;1.17;;;;;;;10.17;100.00;153970.72;5074923;28;20417;-91
2022/11/04 01:17:42;;;;;;;1.60;1.00;;;;;;;10.16;100.00;153969.47;5072990;28;20428;-91
2022/11/04 01:20:27;;;;;;;1.80;1.00;;;;;;;10.13;100.00;153960.41;5066532;28;20482;-90
2022/11/04 01:23:13;;;;;;;1.73;1.03;;;;;;;10.13;100.00;153961.69;5073786;28;20441;-91
2022/11/04 01:25:58;;;;;;;1.37;0.93;;;;;;;10.12;100.00;153957.72;5073496;28;20462;-91
2022/11/04 01:28:43;;;;;;;2.00;1.43;;;;;;;10.11;100.00;153955.19;5072720;28;20519;-91
2022/11/04 01:31:30;;;;;;;1.93;1.10;;;;;;;10.10;100.00;153952.56;5072251;28;20940;-91
2022/11/04 01:34:17;;;;;;;2.10;1.47;;;;;;;10.09;100.00;153951.25;5073719;28;20426;-91
2022/11/04 01:37:02;;;;;;;1.77;1.03;;;;;;;10.10;100.00;153952.56;5065627;28;20791;-91
2022/11/04 01:39:47;;;;;;;1.70;1.10;;;;;;;10.09;100.00;153949.97;5072371;28;20539;-92
2022/11/04 01:42:32;;;;;;;1.37;0.90;;;;;;;10.09;100.00;153951.25;5073958;28;20413;-92
2022/11/04 01:45:19;;;;;;;1.60;1.23;;;;;;;10.09;100.00;153951.25;5071646;28;20810;-92
2022/11/04 01:48:07;;;;;;;1.80;1.30;;;;;;;10.04;100.00;153937.03;5071949;28;20488;-93
2022/11/04 01:50:53;;;;;;;1.30;0.87;;;;;;;10.04;100.00;153937.03;5068509;28;20426;-92
2022/11/04 01:53:40;;;;;;;1.77;1.33;;;;;;;10.05;100.00;153940.94;5071538;28;20441;-91
2022/11/04 01:56:26;;;;;;;1.83;0.97;;;;;;;10.00;100.00;153926.69;5059345;28;20488;-92
2022/11/04 01:59:14;;;;;;;1.93;1.30;;;;;;;9.99;100.00;153924.09;5072248;28;20583;-92
2022/11/04 02:02:00;;;;;;;2.10;1.10;;;;;;;9.96;100.00;153916.31;5073248;28;20504;-92
2022/11/04 02:04:45;;;;;;;2.10;1.20;;;;;;;9.98;100.00;153922.78;5071810;28;20559;-92
2022/11/04 02:07:32;;;;;;;1.33;0.90;;;;;;;9.97;100.00;153918.91;5070950;28;20445;-92
2022/11/04 02:10:20;;;;;;;1.70;1.40;;;;;;;9.96;100.00;153916.31;5072261;28;20461;-92
2022/11/04 02:13:05;;;;;;;1.60;1.03;;;;;;;9.92;100.00;153906.00;5064124;28;20781;-92
2022/11/04 02:15:58;;;;;;;1.77;0.80;;;;;;;9.87;100.00;153893.06;5072818;28;20476;-92
2022/11/04 02:18:54;;;;;;;2.43;1.27;;;;;;;9.89;100.00;153898.22;5046248;28;20442;-92
2022/11/04 02:22:04;;;;;;;1.53;0.90;;;;;;;9.87;100.00;153893.06;5064259;28;20468;-91
2022/11/04 02:25:19;;;;;;;1.50;0.80;;;;;;;9.85;100.00;153887.88;5056058;28;20465;-92
2022/11/04 02:28:21;;;;;;;2.10;0.87;;;;;;;9.82;100.00;153880.13;5065090;28;20445;-92
2022/11/04 02:31:13;;;;;;;1.23;0.70;;;;;;;9.78;100.00;153872.34;5072560;28;20453;-92
2022/11/04 02:34:04;;;;;;;1.30;0.70;;;;;;;9.82;100.00;153880.13;5071483;28;20445;-92
2022/11/04 02:36:56;;;;;;;1.20;0.60;;;;;;;9.78;100.00;153872.34;5036986;28;20409;-93
2022/11/04 02:39:50;;;;;;;1.13;0.70;;;;;;;9.75;100.00;153864.56;5059325;28;20461;-92
2022/11/04 02:42:38;;;;;;;1.73;1.00;;;;;;;9.72;100.00;153856.81;5057332;28;20462;-92
2022/11/04 02:45:25;;;;;;;1.23;0.80;;;;;;;9.67;100.00;153843.88;5073029;28;20472;-92
2022/11/04 02:48:19;;;;;;;1.47;0.80;;;;;;;9.70;100.00;153851.63;5072791;28;21050;-92
2022/11/04 02:51:07;;;;;;;2.80;0.60;;;;;;;9.62;100.00;153830.94;5076315;28;20539;-92
2022/11/04 02:54:00;;;;;;;1.67;0.90;;;;;;;9.59;100.00;153821.88;5076097;28;20460;-91
2022/11/04 02:56:49;;;;;;;1.73;0.90;;;;;;;9.59;100.00;153823.16;5076159;28;20742;-91
2022/11/04 02:59:38;;;;;;;1.70;1.07;;;;;;;9.59;100.00;153821.88;5076474;28;20923;-91
2022/11/04 03:02:27;;;;;;;1.13;0.50;;;;;;;9.59;100.00;153821.88;5067973;28;20445;-91
2022/11/04 03:05:16;;;;;;;1.40;0.80;;;;;;;9.53;100.00;153807.63;5056210;28;20664;-91
2022/11/04 03:08:05;;;;;;;1.90;0.90;;;;;;;9.56;100.00;153814.09;5073370;28;20452;-91
2022/11/04 03:10:53;;;;;;;1.57;0.77;;;;;;;9.52;100.00;153805.06;5074737;28;20473;-91
2022/11/04 03:13:43;;;;;;;1.10;0.80;;;;;;;9.47;100.00;153792.13;5076625;28;20429;-90
2022/11/04 03:16:33;;;;;;;1.10;0.73;;;;;;;9.48;100.00;153793.41;5074555;28;20948;-91
2022/11/04 03:19:24;;;;;;;1.10;0.83;;;;;;;9.48;100.00;153793.41;5075309;28;20927;-91
2022/11/04 03:22:13;;;;;;;1.73;0.60;;;;;;;9.42;100.00;153779.22;5076699;28;21138;-91
2022/11/04 03:25:00;;;;;;;1.90;0.80;;;;;;;9.42;100.00;153779.22;5075109;28;20469;-92
2022/11/04 03:27:49;;;;;;;1.80;0.70;;;;;;;9.41;100.00;153776.59;5075805;28;20401;-91
2022/11/04 03:30:39;;;;;;;1.00;0.70;;;;;;;9.40;100.00;153772.75;5074999;28;20429;-90
2022/11/04 03:33:28;;;;;;;1.80;0.97;;;;;;;9.36;100.00;153763.66;5074907;28;20575;-90
2022/11/04 03:36:13;;;;;;;1.50;0.77;;;;;;;9.35;100.00;153759.75;5075563;28;20507;-90
2022/11/04 03:39:00;;;;;;;1.60;0.90;;;;;;;9.31;100.00;153750.75;5075130;28;20461;-91
2022/11/04 03:41:49;;;;;;;1.50;0.80;;;;;;;9.31;100.00;153750.75;5075797;28;20409;-91
2022/11/04 03:44:34;;;;;;;2.70;0.77;;;;;;;9.32;100.00;153753.31;5075543;28;20523;-90
2022/11/04 03:47:22;;;;;;;1.37;0.60;;;;;;;9.32;100.00;153753.31;5073612;28;20485;-90
2022/11/04 03:50:10;;;;;;;1.50;0.80;;;;;;;9.25;100.00;153735.22;5075655;28;20467;-91
2022/11/04 03:52:56;;;;;;;1.20;0.60;;;;;;;9.24;100.00;153732.59;5074082;28;20446;-91
2022/11/04 03:55:54;;;;;;;1.10;0.70;;;;;;;9.21;100.00;153724.88;5075047;28;20460;-90
2022/11/04 03:58:45;;;;;;;1.10;0.83;;;;;;;9.20;100.00;153722.28;5055362;28;20441;-91
2022/11/04 04:01:35;;;;;;;1.10;0.60;;;;;;;9.19;100.00;153719.69;5067507;28;20457;-91
2022/11/04 04:04:27;;;;;;;1.10;0.70;;;;;;;9.18;100.00;153718.41;5075531;28;20871;-91
2022/11/04 04:07:16;;;;;;;2.10;0.73;;;;;;;9.12;100.00;153701.59;5071389;28;20418;-91
2022/11/04 04:10:37;;;;;;;1.10;0.63;;;;;;;9.09;100.00;153695.13;5065701;28;20477;-91
2022/11/04 04:13:24;;;;;;;1.40;0.70;;;;;;;9.08;100.00;153691.25;5055138;28;20916;-91
2022/11/04 04:16:12;;;;;;;1.47;0.80;;;;;;;9.06;100.00;153686.06;5074142;28;20425;-90
2022/11/04 04:19:00;;;;;;;1.67;0.90;;;;;;;9.05;100.00;153684.75;5074360;28;20457;-91
2022/11/04 04:21:49;;;;;;;1.93;0.90;;;;;;;9.03;100.00;153678.28;5054894;28;20508;-90
2022/11/04 04:27:40;;;;;;;2.27;1.50;;;;;;;8.96;100.00;153660.19;5074335;28;20504;-90
2022/11/04 04:30:27;;;;;;;1.90;1.20;;;;;;;8.93;100.00;153653.72;5074873;28;20492;-90
2022/11/04 04:33:14;;;;;;;1.87;1.10;;;;;;;8.92;100.00;153649.88;5073744;28;20523;-90
2022/11/04 04:35:59;;;;;;;1.27;0.87;;;;;;;8.98;100.00;153665.34;5074628;28;20398;-90
2022/11/04 04:44:59;;;;;;;2.17;1.37;;;;;;;8.92;100.00;153651.13;5074393;28;20473;-90
2022/11/04 04:47:46;;;;;;;1.50;0.90;;;;;;;8.88;100.00;153640.81;5067806;28;20418;-90
2022/11/04 04:50:34;;;;;;;1.80;1.40;;;;;;;8.86;100.00;153634.34;5073367;28;20441;-90
2022/11/04 04:53:26;;;;;;;2.83;1.60;;;;;;;8.81;100.00;153622.72;5054103;28;20430;-90
2022/11/04 04:56:11;;;;;;;1.90;1.10;;;;;;;8.82;100.00;153623.97;5070820;28;20808;-90
2022/11/04 04:58:57;;;;;;;1.57;1.17;;;;;;;8.78;100.00;153613.66;5073780;28;20786;-90
2022/11/04 05:01:42;;;;;;;1.37;1.27;;;;;;;8.75;100.00;153605.91;5072765;28;20955;-90
2022/11/04 05:04:29;;;;;;;1.93;1.20;;;;;;;8.75;100.00;153605.91;5074624;28;20433;-90
2022/11/04 05:07:14;;;;;;;2.60;1.43;;;;;;;8.69;100.00;153590.38;5072993;28;20456;-90
2022/11/04 05:10:00;;;;;;;1.93;1.07;;;;;;;8.66;100.00;153582.66;5072554;28;20488;-75
2022/11/04 05:15:48;;;;;;;1.80;1.33;;;;;;;8.61;100.00;153570.97;5057879;28;20418;-75
2022/11/04 05:18:37;;;;;;;2.20;1.47;;;;;;;8.56;100.00;153559.38;5070326;28;20460;-75
2022/11/04 05:21:24;;;;;;;1.70;1.27;;;;;;;8.56;100.00;153558.06;5070880;28;20453;-75
2022/11/04 05:24:10;;;;;;;4.23;1.60;;;;;;;8.53;100.00;153551.59;5074692;28;20430;-75
2022/11/04 05:27:01;;;;;;;2.70;2.03;;;;;;;8.52;100.00;153549.00;5072015;28;20429;-75
2022/11/04 05:29:46;;;;;;;1.93;1.40;;;;;;;8.49;100.00;153539.97;5065041;28;20449;-75
2022/11/04 05:32:31;;;;;;;2.30;1.20;;;;;;;8.50;100.00;153543.84;5072980;28;20425;-75
2022/11/04 05:35:17;;;;;;;1.30;1.13;;;;;;;8.49;100.00;153541.28;5073931;28;20462;-75
2022/11/04 05:38:03;;;;;;;3.50;1.63;;;;;;;8.49;100.00;153541.28;5055798;28;20433;-75
2022/11/04 05:40:49;;;;;;;1.40;1.10;;;;;;;8.49;100.00;153539.97;5072823;28;20429;-76
2022/11/04 05:43:35;;;;;;;1.60;1.27;;;;;;;8.45;100.00;153530.91;5070206;28;20441;-75
2022/11/04 05:46:21;;;;;;;1.80;1.00;;;;;;;8.43;100.00;153525.75;5073651;28;21093;-90
2022/11/04 05:49:06;;;;;;;1.40;0.87;;;;;;;8.41;100.00;153520.59;5065815;28;20484;-90
2022/11/04 05:51:52;;;;;;;3.93;1.30;;;;;;;8.41;100.00;153520.59;5072910;28;20429;-90
2022/11/04 05:54:39;;;;;;;1.53;0.90;;;;;;;8.40;100.00;153516.69;5061276;28;20503;-89
2022/11/04 05:57:24;;;;;;;1.67;1.27;;;;;;;8.38;100.00;153511.53;5057166;28;20527;-91
2022/11/04 06:00:12;;;;;;;3.23;1.10;;;;;;;8.37;100.00;153508.94;5054757;28;21131;-91
2022/11/04 06:02:57;;;;;;;1.93;1.17;;;;;;;8.35;100.00;153505.06;5068088;28;20445;-91
2022/11/04 06:05:43;;;;;;;1.90;1.23;;;;;;;8.34;100.00;153501.22;5072289;28;20481;-91
2022/11/04 06:08:29;;;;;;;1.50;1.00;;;;;;;8.32;100.00;153497.31;5066620;28;20507;-90
2022/11/04 06:11:19;;;;;;;2.60;1.30;;;;;;;8.31;100.00;153493.47;5072758;28;20464;-91
2022/11/04 06:14:04;;;;;;;2.07;1.30;;;;;;;8.30;100.00;153490.84;5073286;28;20457;-91
2022/11/04 06:16:50;;;;;;;3.73;1.20;;;;;;;8.28;100.00;153485.69;5072960;28;20402;-91
2022/11/04 06:19:35;;;;;;;3.63;1.50;;;;;;;8.26;100.00;153481.75;5073130;28;20871;-91
2022/11/04 06:22:20;;;;;;;2.40;1.83;;;;;;;8.23;100.00;153474.03;5063181;28;20454;-91
2022/11/04 06:25:06;;;;;;;2.73;1.37;;;;;;;8.24;100.00;153476.59;5057508;28;21018;-91
2022/11/04 06:27:53;;;;;;;2.13;1.40;;;;;;;8.23;100.00;153474.03;5058815;28;20452;-91
2022/11/04 06:30:38;;;;;;;2.80;1.33;;;;;;;8.26;100.00;153481.75;5073697;28;20924;-91
2022/11/04 06:33:23;;;;;;;2.13;1.50;;;;;;;8.26;100.00;153481.75;5069115;28;20532;-91
2022/11/04 06:36:12;;;;;;;2.07;1.30;;;;;;;8.24;100.00;153476.59;5074531;28;20422;-90
2022/11/04 06:38:57;;;;;;;1.83;1.30;;;;;;;8.25;100.00;153479.19;5074294;28;20505;-91
2022/11/04 06:41:43;;;;;;;2.50;1.30;;;;;;;8.24;100.00;153476.59;5074161;28;20934;-91
2022/11/04 06:44:29;;;;;;;2.47;1.30;;;;;;;8.27;100.00;153483.09;5072966;28;20784;-90
2022/11/04 06:47:15;;;;;;;2.00;1.17;;;;;;;8.27;100.00;153483.09;5069457;28;20436;-91
2022/11/04 06:50:00;;;;;;;3.27;2.00;;;;;;;8.22;100.00;153471.44;5073558;28;20531;-91
2022/11/04 06:52:45;;;;;;;3.33;1.60;;;;;;;8.25;100.00;153479.19;5043930;28;20462;-90
2022/11/04 06:55:31;;;;;;;2.93;1.70;;;;;;;8.25;100.00;153477.88;5074648;28;20406;-90
2022/11/04 06:58:16;;;;;;;1.57;1.30;;;;;;;8.27;100.00;153483.09;5069559;28;20457;-87
2022/11/04 07:01:03;;;;;;;2.30;1.43;;;;;;;8.27;100.00;153484.41;5075562;28;20531;-90
2022/11/04 07:03:49;;;;;;;1.97;1.60;;;;;;;8.27;100.00;153484.41;5077084;28;20461;-91
2022/11/04 07:06:34;;;;;;;3.37;2.03;;;;;;;8.30;100.00;153492.16;5073093;28;20453;-91
2022/11/04 07:09:19;;;;;;;2.73;1.60;;;;;;;8.32;100.00;153497.31;5060717;28;21085;-91
2022/11/04 07:12:05;;;;;;;2.80;1.80;;;;;;;8.34;100.00;153502.47;5073950;28;20402;-91
2022/11/04 07:14:51;;;;;;;2.20;1.77;;;;;;;8.36;100.00;153507.69;5073581;28;20940;-88
2022/11/04 07:17:38;;;;;;;2.20;1.90;;;;;;;8.34;100.00;153501.22;5072946;28;20449;-90
2022/11/04 07:20:23;;;;;;;3.00;1.80;;;;;;;8.34;100.00;153502.47;5072338;28;20519;-89
2022/11/04 07:23:08;;;;;;;2.80;1.90;;;;;;;8.32;100.00;153497.31;5072308;28;20452;-90
2022/11/04 07:25:54;;;;;;;2.40;2.10;;;;;;;8.31;100.00;153494.72;5066410;28;20820;-90
2022/11/04 07:28:39;;;;;;;2.80;1.70;;;;;;;8.32;100.00;153497.31;5068751;28;20456;-91
2022/11/04 07:31:25;;;;;;;4.00;2.33;;;;;;;8.31;100.00;153493.47;5072632;28;20409;-89
2022/11/04 07:34:12;;;;;;;1.93;1.73;;;;;;;8.33;100.00;153499.91;5063513;28;20457;-91
2022/11/04 07:36:57;;;;;;;2.60;2.10;;;;;;;8.37;100.00;153508.94;5069929;28;20445;-89
2022/11/04 07:39:42;;;;;;;2.53;1.63;;;;;;;8.38;100.00;153512.84;5075079;28;20410;-89
2022/11/04 07:42:27;;;;;;;2.47;1.50;;;;;;;8.37;100.00;153510.22;5075195;28;21295;-89
2022/11/04 07:45:14;;;;;;;3.03;1.90;;;;;;;8.41;100.00;153519.28;5047722;28;20448;-91
2022/11/04 07:47:59;;;;;;;3.20;2.00;;;;;;;8.43;100.00;153525.75;5053130;28;20466;-89
2022/11/04 07:50:46;;;;;;;2.40;1.77;;;;;;;8.46;100.00;153533.53;5073623;28;20782;-90
2022/11/04 07:53:32;;;;;;;2.20;1.70;;;;;;;8.51;100.00;153546.44;5075245;28;20998;-90
2022/11/04 07:56:17;;;;;;;2.70;1.60;;;;;;;8.55;100.00;153556.75;5078787;28;20454;-88
2022/11/04 07:59:05;;;;;;;2.07;1.23;;;;;;;8.57;100.00;153560.66;5055933;28;20446;-90
2022/11/04 08:01:51;;;;;;;1.67;1.47;;;;;;;8.61;100.00;153569.69;5062403;28;20439;-89
2022/11/04 08:04:36;;;;;;;1.80;1.30;;;;;;;8.61;100.00;153570.97;5075862;28;20473;-90
2022/11/04 08:07:23;;;;;;;3.07;1.40;;;;;;;8.66;100.00;153583.91;5075472;28;20563;-89
2022/11/04 08:10:10;;;;;;;2.20;1.50;;;;;;;8.71;100.00;153595.56;5075437;28;20499;-89
2022/11/04 08:12:55;;;;;;;1.90;1.20;;;;;;;8.76;100.00;153608.50;5056119;28;20453;-90
2022/11/04 08:15:40;;;;;;;2.60;1.40;;;;;;;8.82;100.00;153623.97;5068991;28;20778;-90
2022/11/04 08:18:26;;;;;;;2.00;1.50;;;;;;;8.85;100.00;153631.75;5078693;28;20460;-89
2022/11/04 08:21:11;;;;;;;3.20;1.60;;;;;;;8.90;100.00;153644.66;5074189;28;20452;-90
2022/11/04 08:23:58;;;;;;;7.93;1.80;;;;;;;8.98;100.00;153665.34;5075098;28;20453;-90
2022/11/04 08:26:45;;;;;;;1.90;1.57;;;;;;;9.03;100.00;153678.28;5075341;28;21025;-90
2022/11/04 08:29:36;;;;;;;4.90;2.03;;;;;;;9.08;100.00;153691.25;5073007;28;20468;-90
2022/11/04 08:32:21;;;;;;;5.33;2.23;;;;;;;9.16;100.00;153711.91;5074967;28;20567;-90
2022/11/04 08:35:08;;;;;;;3.37;1.70;;;;;;;9.20;100.00;153722.28;5072151;28;20469;-90
2022/11/04 08:37:53;;;;;;;2.77;1.90;;;;;;;9.26;100.00;153737.81;5068773;28;20568;-90
2022/11/04 08:40:39;;;;;;;2.00;1.57;;;;;;;9.29;100.00;153744.28;5063093;28;20536;-90
2022/11/04 08:43:25;;;;;;;3.20;1.50;;;;;;;9.42;100.00;153777.91;5071049;28;20579;-90
2022/11/04 08:46:11;;;;;;;2.80;1.50;;;;;;;9.49;100.00;153797.31;5082317;28;20809;-90
2022/11/04 08:48:57;;;;;;;2.97;1.60;;;;;;;9.66;100.00;153840.00;5069867;28;20519;-89
2022/11/04 08:51:45;;;;;;;2.30;1.60;;;;;;;9.56;100.00;153815.41;5073198;28;20572;-90
2022/11/04 08:54:31;;;;;;;3.93;1.60;;;;;;;9.60;100.00;153824.47;5052233;28;20787;-90
2022/11/04 08:57:17;;;;;;;4.83;2.23;;;;;;;9.57;100.00;153818.00;5073039;28;20448;-90
2022/11/04 09:00:15;;;;;;;3.17;1.60;;;;;;;9.60;100.00;153825.78;5072893;28;20433;-91
2022/11/04 09:03:00;;;;;;;2.60;1.80;;;;;;;9.62;100.00;153830.94;5071416;28;20460;-91
2022/11/04 09:05:47;;;;;;;2.00;1.60;;;;;;;9.67;100.00;153842.56;5060032;28;20638;-90
2022/11/04 09:08:33;;;;;;;4.27;2.23;;;;;;;9.66;100.00;153841.25;5057749;28;20463;-91
2022/11/04 09:11:18;;;;;;;3.57;2.17;;;;;;;9.66;100.00;153840.00;5073858;28;20405;-91
2022/11/04 09:14:05;;;;;;;2.87;1.73;;;;;;;9.77;100.00;153869.75;5070534;28;20473;-91
2022/11/04 09:16:50;;;;;;;2.50;2.00;;;;;;;9.87;100.00;153894.34;5072747;28;20413;-91
2022/11/04 09:19:35;;;;;;;3.03;2.30;;;;;;;9.77;100.00;153869.75;5073784;28;20744;-91
2022/11/04 09:22:20;;;;;;;3.23;2.50;;;;;;;9.81;100.00;153878.81;5072516;28;20456;-91
2022/11/04 09:25:07;;;;;;;3.80;2.00;;;;;;;9.75;100.00;153864.56;5072496;28;20452;-91
2022/11/04 09:27:51;;;;;;;3.80;2.20;;;;;;;9.77;100.00;153868.44;5073073;28;20473;-90
2022/11/04 09:30:38;;;;;;;3.23;2.60;;;;;;;9.82;100.00;153881.41;5073445;28;20424;-91
2022/11/04 09:33:23;;;;;;;6.23;2.60;;;;;;;9.89;100.00;153898.22;5071211;28;20449;-91
2022/11/04 09:36:10;;;;;;;8.20;2.73;;;;;;;9.89;100.00;153898.22;5073446;28;20394;-91
2022/11/04 09:38:55;;;;;;;4.30;1.90;;;;;;;9.94;100.00;153911.16;5072264;28;20472;-90
2022/11/04 09:41:59;;;;;;;3.77;2.10;;;;;;;9.97;100.00;153918.91;5072778;28;20932;-90
2022/11/04 09:44:50;;;;;;;4.53;2.47;;;;;;;9.98;100.00;153922.78;5058037;28;20409;-90
2022/11/04 09:47:39;;;;;;;6.53;2.10;;;;;;;10.15;100.00;153965.56;5058821;28;20469;-90
2022/11/04 09:50:26;;;;;;;3.50;1.77;;;;;;;10.12;100.00;153957.72;5052447;28;20472;-90
2022/11/04 09:53:17;;;;;;;3.87;2.13;;;;;;;10.14;100.00;153963.00;5072291;28;21001;-90
2022/11/04 09:56:05;;;;;;;3.20;1.97;;;;;;;10.15;100.00;153966.88;5058019;28;20620;-90
2022/11/04 09:58:51;;;;;;;6.00;2.20;;;;;;;10.21;100.00;153982.41;5072515;28;20449;-90
2022/11/04 10:01:40;;;;;;;3.00;2.70;;;;;;;10.30;100.00;154004.38;5058593;28;20916;-90
2022/11/04 10:04:32;;;;;;;1.93;1.47;;;;;;;10.31;100.00;154007.00;5072311;28;20433;-90
2022/11/04 10:07:27;;;;;;;2.53;1.57;;;;;;;10.34;100.00;154014.75;5073189;28;20480;-89
2022/11/04 10:10:18;;;;;;;2.57;1.93;;;;;;;10.50;100.00;154056.19;5073017;28;20457;-90
2022/11/04 10:13:14;;;;;;;1.87;1.37;;;;;;;10.51;100.00;154058.75;5073052;28;20520;-90
2022/11/04 10:16:11;;;;;;;4.63;2.03;;;;;;;10.64;99.26;154091.16;5072566;28;21019;-90
2022/11/04 10:19:08;;;;;;;3.20;1.90;;;;;;;10.64;97.47;154091.16;5053278;28;20765;-90
2022/11/04 10:22:03;;;;;;;2.80;1.50;;;;;;;10.63;97.69;154088.56;5064577;28;20445;-90
2022/11/04 10:24:52;;;;;;;1.90;1.40;;;;;;;10.86;97.48;154148.09;5068652;28;20511;-90
2022/11/04 10:27:39;;;;;;;2.30;1.60;;;;;;;10.81;96.21;154135.16;5073420;28;20599;-89
2022/11/04 10:30:27;;;;;;;2.00;1.50;;;;;;;10.71;97.19;154110.56;5071059;28;20449;-91
2022/11/04 10:33:18;;;;;;;3.30;2.43;;;;;;;10.84;96.32;154144.25;5057542;28;20458;-90
2022/11/04 10:36:06;;;;;;;2.23;1.43;;;;;;;10.76;96.33;154123.53;5052570;28;20513;-90
2022/11/04 10:38:55;;;;;;;2.60;1.60;;;;;;;10.83;95.51;154141.63;5057382;28;20580;-90
2022/11/04 10:41:42;;;;;;;2.67;1.50;;;;;;;10.85;94.65;154145.53;5070887;28;20422;-90
2022/11/04 10:44:29;;;;;;;2.10;1.90;;;;;;;10.77;95.62;154126.13;5065295;28;20436;-90
2022/11/04 10:47:22;;;;;;;2.03;1.20;;;;;;;10.80;94.54;154132.59;5057034;28;20472;-90
2022/11/04 10:50:30;;;;;;;3.27;1.40;;;;;;;10.91;95.36;154161.06;5078768;28;20844;-90
2022/11/04 10:53:18;;;;;;;2.43;1.30;;;;;;;10.93;97.05;154166.28;5071998;28;20793;-90
2022/11/04 10:56:08;;;;;;;3.60;1.73;;;;;;;10.97;96.51;154177.91;5071213;28;20429;-90
2022/11/04 10:58:55;;;;;;;8.70;1.63;;;;;;;11.04;96.01;154193.47;5070509;28;20457;-90
2022/11/04 11:01:48;;;;;;;5.53;2.10;;;;;;;11.07;95.63;154201.25;5069931;28;20494;-90
2022/11/04 11:04:36;;;;;;;3.60;1.70;;;;;;;11.11;94.35;154212.88;5047284;28;20457;-90
2022/11/04 11:07:36;;;;;;;3.90;1.90;;;;;;;11.15;96.67;154221.94;5057742;28;20979;-90
2022/11/04 11:10:23;;;;;;;2.03;1.10;;;;;;;11.18;93.95;154229.72;5064002;28;20491;-90
2022/11/04 11:13:25;;;;;;;3.97;1.40;;;;;;;11.18;97.38;154231.00;5072059;28;20461;-90
2022/11/04 11:16:12;;;;;;;2.00;1.10;;;;;;;11.16;95.82;154225.84;5075970;28;20445;-90
2022/11/04 11:19:16;;;;;;;3.93;1.37;;;;;;;11.15;95.96;154221.94;5064994;28;20457;-90
2022/11/04 11:22:02;;;;;;;3.03;1.20;;;;;;;11.16;97.38;154225.84;5070145;28;20424;-89
2022/11/04 11:24:47;;;;;;;4.90;1.47;;;;;;;11.18;94.51;154229.72;5075501;28;21013;-90
2022/11/04 11:27:32;;;;;;;2.67;1.40;;;;;;;11.16;94.22;154224.53;5071637;28;20476;-90
2022/11/04 11:30:25;;;;;;;2.40;1.10;;;;;;;11.17;97.32;154227.16;5073627;28;20721;-90
2022/11/04 11:33:18;;;;;;;2.67;1.20;;;;;;;11.14;95.49;154219.38;5067940;28;20457;-90
2022/11/04 11:36:10;;;;;;;2.10;1.50;;;;;;;11.18;97.05;154229.72;5071516;28;20760;-90
2022/11/04 11:39:00;;;;;;;5.20;1.20;;;;;;;11.20;96.39;154234.94;5074394;28;20483;-90
2022/11/04 11:41:53;;;;;;;4.03;1.30;;;;;;;11.24;95.87;154245.25;5072206;28;21042;-90
2022/11/04 11:44:43;;;;;;;1.60;0.97;;;;;;;11.29;91.75;154258.22;5065709;28;20991;-90
2022/11/04 11:47:40;;;;;;;2.80;1.27;;;;;;;11.30;93.64;154260.81;5049782;28;20465;-90
2022/11/04 11:50:31;;;;;;;4.53;1.33;;;;;;;11.34;94.07;154271.16;5065032;28;20444;-90
2022/11/04 11:53:18;;;;;;;2.13;1.10;;;;;;;11.38;92.93;154281.56;5073778;28;20445;-90
2022/11/04 11:56:12;;;;;;;1.60;1.00;;;;;;;11.37;93.71;154280.25;5073925;28;20905;-90
2022/11/04 11:59:06;;;;;;;2.53;1.27;;;;;;;11.37;89.28;154278.94;5064738;28;20488;-90
2022/11/04 12:01:57;;;;;;;2.50;1.00;;;;;;;11.41;88.60;154289.34;5074268;28;20556;-90
2022/11/04 12:04:43;;;;;;;3.23;1.23;;;;;;;11.46;91.48;154303.53;5069156;28;20930;-90
2022/11/04 12:07:37;;;;;;;1.70;1.10;;;;;;;11.48;90.65;154308.75;5070058;28;20909;-90
2022/11/04 12:10:28;;;;;;;3.10;1.10;;;;;;;11.65;89.84;154351.50;5072753;28;20991;-89
2022/11/04 12:13:16;;;;;;;4.83;1.13;;;;;;;11.66;88.33;154354.09;5069377;28;20480;-89
2022/11/04 12:16:17;;;;;;;4.03;1.60;;;;;;;11.62;87.87;154343.75;5070793;28;20562;-89
2022/11/04 12:19:19;;;;;;;3.07;1.20;;;;;;;11.62;91.33;154343.75;5080738;28;20452;-89
2022/11/04 12:22:10;;;;;;;2.73;0.90;;;;;;;11.62;92.13;154345.00;5073505;28;20440;-89
2022/11/04 12:25:03;;;;;;;3.93;1.27;;;;;;;11.62;91.18;154343.75;5046334;28;20438;-90
2022/11/04 12:27:54;;;;;;;3.07;1.20;;;;;;;11.65;90.78;154350.22;5073313;28;20488;-90
2022/11/04 12:30:47;;;;;;;2.50;1.07;;;;;;;11.66;90.76;154354.09;5073498;28;20461;-90
2022/11/04 12:33:37;;;;;;;5.00;1.60;;;;;;;11.71;89.06;154367.09;5068085;28;20547;-90
2022/11/04 12:36:36;;;;;;;3.97;1.20;;;;;;;11.77;89.14;154382.66;5073878;28;20469;-90
2022/11/04 12:39:34;;;;;;;1.70;0.80;;;;;;;11.78;86.38;154385.22;5055631;28;21278;-89
2022/11/04 12:42:24;;;;;;;3.03;1.10;;;;;;;11.70;88.03;154364.53;5039349;28;20433;-90
2022/11/04 12:45:21;;;;;;;2.80;1.10;;;;;;;11.67;88.56;154355.41;5066434;28;20492;-90
2022/11/04 12:48:10;;;;;;;2.23;0.90;;;;;;;11.71;89.52;154365.81;5072874;28;20515;-90
2022/11/04 12:51:01;;;;;;;4.40;1.20;;;;;;;11.75;90.33;154376.19;5059033;28;20425;-90
2022/11/04 12:53:56;;;;;;;4.73;1.20;;;;;;;11.75;90.10;154377.50;5060367;28;20436;-90
2022/11/04 12:56:43;;;;;;;1.93;1.00;;;;;;;11.76;88.30;154378.75;5073600;28;20452;-89
2022/11/04 12:59:43;;;;;;;3.43;1.17;;;;;;;11.77;89.19;154382.66;5054128;28;20444;-89
2022/11/04 13:02:30;;;;;;;3.80;1.20;;;;;;;11.78;88.93;154385.22;5069213;28;20457;-90
2022/11/04 13:05:39;;;;;;;2.40;1.13;;;;;;;11.82;89.69;154395.63;5054187;28;20402;-90
2022/11/04 13:08:31;;;;;;;3.53;1.30;;;;;;;11.84;88.44;154399.50;5071234;28;20987;-90
2022/11/04 13:11:23;;;;;;;9.00;2.10;;;;;;;11.80;87.04;154389.16;5069404;28;20437;-90
2022/11/04 13:14:15;;;;;;;2.10;0.87;;;;;;;11.88;88.10;154409.88;5066449;28;20819;-90
2022/11/04 13:17:04;;;;;;;1.87;1.10;;;;;;;11.85;87.60;154403.41;5066971;28;20575;-90
2022/11/04 13:19:51;;;;;;;2.40;1.30;;;;;;;11.85;85.86;154402.09;5064673;28;20426;-90
2022/11/04 13:22:37;;;;;;;4.03;1.20;;;;;;;11.83;87.03;154398.22;5067305;28;21059;-90
2022/11/04 13:25:27;;;;;;;3.37;1.50;;;;;;;11.86;87.34;154404.72;5069756;28;20441;-90
2022/11/04 13:28:13;;;;;;;2.37;1.10;;;;;;;11.87;89.31;154407.28;5070353;28;20472;-90